sensor_id;sensor_type;location;lat;lon;timestamp;pressure;altitude;pressure_sealevel;temperature;humidity
17060;BME280;8646;49.716;9.266;2023-08-24T00:01:24;100492.13;;;20.35;69.02
17060;BME280;8646;49.716;9.266;2023-08-24T00:04:27;100492.56;;;20.29;70.48
17060;BME280;8646;49.716;9.266;2023-08-24T00:07:31;100484.56;;;20.14;71.19
17060;BME280;8646;49.716;9.266;2023-08-24T00:10:34;100487.81;;;20.08;71.50
17060;BME280;8646;49.716;9.266;2023-08-24T00:13:37;100487.81;;;20.08;70.51
17060;BME280;8646;49.716;9.266;2023-08-24T00:16:40;100485.28;;;20.05;70.79
17060;BME280;8646;49.716;9.266;2023-08-24T00:19:43;100483.53;;;20.04;70.64
17060;BME280;8646;49.716;9.266;2023-08-24T00:22:49;100480.19;;;20.01;71.01
17060;BME280;8646;49.716;9.266;2023-08-24T00:25:51;100475.31;;;20.04;70.31
17060;BME280;8646;49.716;9.266;2023-08-24T00:28:54;100472.28;;;19.96;70.36
17060;BME280;8646;49.716;9.266;2023-08-24T00:31:57;100477.78;;;19.96;71.09
17060;BME280;8646;49.716;9.266;2023-08-24T00:35:01;100474.66;;;19.90;70.94
17060;BME280;8646;49.716;9.266;2023-08-24T00:38:05;100480.38;;;19.87;71.15
17060;BME280;8646;49.716;9.266;2023-08-24T00:41:08;100482.50;;;19.83;70.92
17060;BME280;8646;49.716;9.266;2023-08-24T00:44:11;100472.88;;;19.77;71.31
17060;BME280;8646;49.716;9.266;2023-08-24T00:47:14;100482.47;;;19.72;72.27
17060;BME280;8646;49.716;9.266;2023-08-24T00:50:18;100487.44;;;19.67;71.56
17060;BME280;8646;49.716;9.266;2023-08-24T00:53:24;100486.69;;;19.65;71.98
17060;BME280;8646;49.716;9.266;2023-08-24T00:56:27;100479.53;;;19.62;71.97
17060;BME280;8646;49.716;9.266;2023-08-24T00:59:31;100463.81;;;19.53;71.16
17060;BME280;8646;49.716;9.266;2023-08-24T01:02:35;100472.44;;;19.60;72.10
17060;BME280;8646;49.716;9.266;2023-08-24T01:05:38;100479.03;;;19.57;71.08
17060;BME280;8646;49.716;9.266;2023-08-24T01:08:42;100481.16;;;19.54;71.22
17060;BME280;8646;49.716;9.266;2023-08-24T01:11:51;100476.66;;;19.53;71.16
17060;BME280;8646;49.716;9.266;2023-08-24T01:15:04;100481.03;;;19.55;71.05
17060;BME280;8646;49.716;9.266;2023-08-24T01:18:12;100479.81;;;19.47;72.06
17060;BME280;8646;49.716;9.266;2023-08-24T01:21:17;100470.97;;;19.43;72.16
17060;BME280;8646;49.716;9.266;2023-08-24T01:24:28;100478.00;;;19.47;73.02
17060;BME280;8646;49.716;9.266;2023-08-24T01:27:36;100476.06;;;19.36;73.91
17060;BME280;8646;49.716;9.266;2023-08-24T01:30:39;100479.50;;;19.27;74.11
17060;BME280;8646;49.716;9.266;2023-08-24T01:33:42;100484.13;;;19.27;74.72
17060;BME280;8646;49.716;9.266;2023-08-24T01:36:45;100489.19;;;19.20;74.81
17060;BME280;8646;49.716;9.266;2023-08-24T01:39:54;100490.94;;;19.21;74.43
17060;BME280;8646;49.716;9.266;2023-08-24T01:43:04;100501.16;;;19.19;74.18
17060;BME280;8646;49.716;9.266;2023-08-24T01:46:09;100500.38;;;19.17;73.86
17060;BME280;8646;49.716;9.266;2023-08-24T01:49:14;100497.13;;;19.12;75.04
17060;BME280;8646;49.716;9.266;2023-08-24T01:52:17;100495.59;;;19.08;74.25
17060;BME280;8646;49.716;9.266;2023-08-24T01:55:21;100495.84;;;19.05;74.87
17060;BME280;8646;49.716;9.266;2023-08-24T01:58:28;100494.97;;;19.04;74.10
17060;BME280;8646;49.716;9.266;2023-08-24T02:01:31;100498.59;;;19.05;74.47
17060;BME280;8646;49.716;9.266;2023-08-24T02:04:34;100481.19;;;18.93;73.70
17060;BME280;8646;49.716;9.266;2023-08-24T02:07:39;100495.41;;;18.98;73.87
17060;BME280;8646;49.716;9.266;2023-08-24T02:10:42;100486.19;;;18.99;73.67
17060;BME280;8646;49.716;9.266;2023-08-24T02:13:46;100485.88;;;19.04;74.91
17060;BME280;8646;49.716;9.266;2023-08-24T02:16:49;100482.69;;;18.97;75.61
17060;BME280;8646;49.716;9.266;2023-08-24T02:19:51;100498.19;;;18.86;76.33
17060;BME280;8646;49.716;9.266;2023-08-24T02:22:56;100490.09;;;18.84;75.90
17060;BME280;8646;49.716;9.266;2023-08-24T02:25:59;100473.53;;;18.86;75.44
17060;BME280;8646;49.716;9.266;2023-08-24T02:29:03;100471.56;;;18.88;75.76
17060;BME280;8646;49.716;9.266;2023-08-24T02:32:06;100467.81;;;18.89;77.17
17060;BME280;8646;49.716;9.266;2023-08-24T02:35:09;100469.25;;;18.82;77.53
17060;BME280;8646;49.716;9.266;2023-08-24T02:38:12;100463.25;;;18.77;77.42
17060;BME280;8646;49.716;9.266;2023-08-24T02:41:14;100463.44;;;18.74;77.54
17060;BME280;8646;49.716;9.266;2023-08-24T02:44:18;100459.72;;;18.75;76.53
17060;BME280;8646;49.716;9.266;2023-08-24T02:47:21;100457.34;;;18.70;76.75
17060;BME280;8646;49.716;9.266;2023-08-24T02:50:27;100452.84;;;18.69;76.88
17060;BME280;8646;49.716;9.266;2023-08-24T02:53:32;100452.94;;;18.67;76.51
17060;BME280;8646;49.716;9.266;2023-08-24T02:56:38;100414.69;;;18.53;76.20
17060;BME280;8646;49.716;9.266;2023-08-24T02:59:42;100452.06;;;18.67;78.35
17060;BME280;8646;49.716;9.266;2023-08-24T03:02:46;100445.19;;;18.61;78.23
17060;BME280;8646;49.716;9.266;2023-08-24T03:05:55;100451.66;;;18.60;78.00
17060;BME280;8646;49.716;9.266;2023-08-24T03:09:02;100437.75;;;18.63;78.01
17060;BME280;8646;49.716;9.266;2023-08-24T03:12:06;100434.84;;;18.65;77.90
17060;BME280;8646;49.716;9.266;2023-08-24T03:15:10;100431.13;;;18.66;78.17
17060;BME280;8646;49.716;9.266;2023-08-24T03:18:15;100433.00;;;18.65;78.07
17060;BME280;8646;49.716;9.266;2023-08-24T03:21:18;100431.28;;;18.64;78.15
17060;BME280;8646;49.716;9.266;2023-08-24T03:24:21;100433.88;;;18.66;77.63
17060;BME280;8646;49.716;9.266;2023-08-24T03:27:24;100444.84;;;18.66;77.31
17060;BME280;8646;49.716;9.266;2023-08-24T03:30:28;100439.59;;;18.63;77.39
17060;BME280;8646;49.716;9.266;2023-08-24T03:33:31;100445.41;;;18.58;77.44
17060;BME280;8646;49.716;9.266;2023-08-24T03:36:34;100444.97;;;18.52;77.47
17060;BME280;8646;49.716;9.266;2023-08-24T03:39:38;100448.03;;;18.47;77.80
17060;BME280;8646;49.716;9.266;2023-08-24T03:42:41;100431.81;;;18.44;77.97
17060;BME280;8646;49.716;9.266;2023-08-24T03:45:45;100438.06;;;18.46;77.78
17060;BME280;8646;49.716;9.266;2023-08-24T03:48:48;100427.13;;;18.46;77.94
17060;BME280;8646;49.716;9.266;2023-08-24T03:51:51;100432.91;;;18.54;77.19
17060;BME280;8646;49.716;9.266;2023-08-24T03:54:54;100436.19;;;18.59;77.01
17060;BME280;8646;49.716;9.266;2023-08-24T03:57:56;100424.03;;;18.63;77.23
17060;BME280;8646;49.716;9.266;2023-08-24T04:01:01;100421.81;;;18.68;76.89
17060;BME280;8646;49.716;9.266;2023-08-24T04:04:04;100424.44;;;18.70;77.83
17060;BME280;8646;49.716;9.266;2023-08-24T04:07:07;100416.34;;;18.68;79.05
17060;BME280;8646;49.716;9.266;2023-08-24T04:10:10;100385.66;;;18.63;78.01
17060;BME280;8646;49.716;9.266;2023-08-24T04:13:13;100383.75;;;18.77;77.64
17060;BME280;8646;49.716;9.266;2023-08-24T04:16:17;100361.22;;;18.84;79.19
17060;BME280;8646;49.716;9.266;2023-08-24T04:19:20;100331.81;;;18.86;82.44
17060;BME280;8646;49.716;9.266;2023-08-24T04:22:23;100346.41;;;18.87;85.72
17060;BME280;8646;49.716;9.266;2023-08-24T04:25:26;100363.31;;;18.57;88.88
17060;BME280;8646;49.716;9.266;2023-08-24T04:28:29;100357.16;;;18.53;91.59
17060;BME280;8646;49.716;9.266;2023-08-24T04:31:33;100370.69;;;18.56;92.02
17060;BME280;8646;49.716;9.266;2023-08-24T04:34:37;100376.66;;;18.49;92.29
17060;BME280;8646;49.716;9.266;2023-08-24T04:37:39;100363.22;;;18.46;92.54
17060;BME280;8646;49.716;9.266;2023-08-24T04:40:47;100346.66;;;18.47;92.77
17060;BME280;8646;49.716;9.266;2023-08-24T04:43:50;100344.59;;;18.38;93.25
17060;BME280;8646;49.716;9.266;2023-08-24T04:46:55;100348.13;;;18.40;92.75
17060;BME280;8646;49.716;9.266;2023-08-24T04:49:57;100352.22;;;18.22;92.77
17060;BME280;8646;49.716;9.266;2023-08-24T04:53:01;100365.97;;;18.46;92.80
17060;BME280;8646;49.716;9.266;2023-08-24T04:56:04;100377.78;;;18.46;94.01
17060;BME280;8646;49.716;9.266;2023-08-24T04:59:07;100378.19;;;18.53;93.60
17060;BME280;8646;49.716;9.266;2023-08-24T05:02:11;100370.09;;;18.51;93.45
17060;BME280;8646;49.716;9.266;2023-08-24T05:05:14;100373.41;;;18.56;94.16
17060;BME280;8646;49.716;9.266;2023-08-24T05:08:17;100363.84;;;18.49;94.72
17060;BME280;8646;49.716;9.266;2023-08-24T05:11:22;100366.16;;;18.43;95.03
17060;BME280;8646;49.716;9.266;2023-08-24T05:14:25;100365.75;;;18.36;95.04
17060;BME280;8646;49.716;9.266;2023-08-24T05:17:29;100363.31;;;18.44;94.69
17060;BME280;8646;49.716;9.266;2023-08-24T05:20:33;100356.63;;;18.61;93.85
17060;BME280;8646;49.716;9.266;2023-08-24T05:23:36;100380.63;;;18.57;94.00
17060;BME280;8646;49.716;9.266;2023-08-24T05:26:38;100382.81;;;18.52;93.77
17060;BME280;8646;49.716;9.266;2023-08-24T05:29:41;100367.25;;;18.53;93.54
17060;BME280;8646;49.716;9.266;2023-08-24T05:32:45;100365.66;;;18.74;92.11
17060;BME280;8646;49.716;9.266;2023-08-24T05:35:50;100362.91;;;18.98;91.00
17060;BME280;8646;49.716;9.266;2023-08-24T05:38:53;100356.09;;;19.03;89.94
17060;BME280;8646;49.716;9.266;2023-08-24T05:42:08;100369.44;;;19.08;90.30
17060;BME280;8646;49.716;9.266;2023-08-24T05:45:10;100385.09;;;18.95;91.00
17060;BME280;8646;49.716;9.266;2023-08-24T05:48:15;100399.28;;;19.13;90.75
17060;BME280;8646;49.716;9.266;2023-08-24T05:51:18;100412.31;;;19.09;90.67
17060;BME280;8646;49.716;9.266;2023-08-24T05:54:21;100417.59;;;19.12;90.20
17060;BME280;8646;49.716;9.266;2023-08-24T05:57:24;100437.69;;;19.24;89.79
17060;BME280;8646;49.716;9.266;2023-08-24T06:00:27;100471.78;;;19.32;89.27
17060;BME280;8646;49.716;9.266;2023-08-24T06:03:32;100482.44;;;19.37;88.44
17060;BME280;8646;49.716;9.266;2023-08-24T06:06:35;100501.28;;;19.41;88.13
17060;BME280;8646;49.716;9.266;2023-08-24T06:09:38;100504.78;;;19.43;88.42
17060;BME280;8646;49.716;9.266;2023-08-24T06:12:41;100505.00;;;19.53;88.26
17060;BME280;8646;49.716;9.266;2023-08-24T06:15:44;100505.91;;;19.65;87.41
17060;BME280;8646;49.716;9.266;2023-08-24T06:18:48;100519.69;;;19.76;86.33
17060;BME280;8646;49.716;9.266;2023-08-24T06:21:51;100521.72;;;19.85;85.96
17060;BME280;8646;49.716;9.266;2023-08-24T06:24:54;100507.00;;;19.86;85.60
17060;BME280;8646;49.716;9.266;2023-08-24T06:28:01;100498.50;;;19.89;85.93
17060;BME280;8646;49.716;9.266;2023-08-24T06:31:05;100495.53;;;20.03;85.98
17060;BME280;8646;49.716;9.266;2023-08-24T06:34:10;100501.09;;;20.26;85.77
17060;BME280;8646;49.716;9.266;2023-08-24T06:37:13;100495.88;;;20.45;85.05
17060;BME280;8646;49.716;9.266;2023-08-24T06:40:16;100472.13;;;20.55;84.09
17060;BME280;8646;49.716;9.266;2023-08-24T06:43:20;100455.88;;;20.63;83.53
17060;BME280;8646;49.716;9.266;2023-08-24T06:46:22;100444.38;;;20.69;83.31
17060;BME280;8646;49.716;9.266;2023-08-24T06:49:27;100431.13;;;20.74;83.04
17060;BME280;8646;49.716;9.266;2023-08-24T06:52:29;100429.34;;;20.84;82.75
17060;BME280;8646;49.716;9.266;2023-08-24T06:55:32;100430.38;;;20.83;82.42
17060;BME280;8646;49.716;9.266;2023-08-24T06:58:35;100405.63;;;20.83;81.16
17060;BME280;8646;49.716;9.266;2023-08-24T07:01:38;100408.19;;;20.96;80.79
17060;BME280;8646;49.716;9.266;2023-08-24T07:04:44;100402.28;;;21.01;81.16
17060;BME280;8646;49.716;9.266;2023-08-24T07:07:49;100386.22;;;21.28;80.37
17060;BME280;8646;49.716;9.266;2023-08-24T07:10:52;100378.63;;;21.41;80.26
17060;BME280;8646;49.716;9.266;2023-08-24T07:13:55;100379.22;;;21.56;79.26
17060;BME280;8646;49.716;9.266;2023-08-24T07:16:58;100376.91;;;21.61;79.29
17060;BME280;8646;49.716;9.266;2023-08-24T07:20:03;100376.84;;;21.72;78.50
17060;BME280;8646;49.716;9.266;2023-08-24T07:23:07;100381.06;;;21.76;77.36
17060;BME280;8646;49.716;9.266;2023-08-24T07:26:10;100394.06;;;21.64;77.36
17060;BME280;8646;49.716;9.266;2023-08-24T07:29:13;100387.31;;;21.57;77.46
17060;BME280;8646;49.716;9.266;2023-08-24T07:32:16;100380.34;;;21.53;78.09
17060;BME280;8646;49.716;9.266;2023-08-24T07:35:21;100375.63;;;21.65;77.53
17060;BME280;8646;49.716;9.266;2023-08-24T07:38:26;100365.16;;;21.80;76.34
17060;BME280;8646;49.716;9.266;2023-08-24T07:41:29;100362.84;;;21.85;76.17
17060;BME280;8646;49.716;9.266;2023-08-24T07:44:31;100365.81;;;21.93;76.00
17060;BME280;8646;49.716;9.266;2023-08-24T07:47:34;100359.00;;;22.18;76.09
17060;BME280;8646;49.716;9.266;2023-08-24T07:50:38;100342.53;;;22.37;74.77
17060;BME280;8646;49.716;9.266;2023-08-24T07:53:42;100335.31;;;22.45;74.09
17060;BME280;8646;49.716;9.266;2023-08-24T07:56:45;100343.00;;;22.52;73.60
17060;BME280;8646;49.716;9.266;2023-08-24T07:59:48;100341.16;;;22.62;74.18
17060;BME280;8646;49.716;9.266;2023-08-24T08:02:50;100353.84;;;23.03;72.74
17060;BME280;8646;49.716;9.266;2023-08-24T08:05:55;100355.16;;;23.37;72.18
17060;BME280;8646;49.716;9.266;2023-08-24T08:08:59;100357.75;;;23.77;72.08
17060;BME280;8646;49.716;9.266;2023-08-24T08:12:03;100366.66;;;24.08;70.65
17060;BME280;8646;49.716;9.266;2023-08-24T08:15:07;100372.88;;;24.39;70.44
17060;BME280;8646;49.716;9.266;2023-08-24T08:18:10;100359.53;;;24.52;69.82
17060;BME280;8646;49.716;9.266;2023-08-24T08:21:16;100356.25;;;24.66;69.22
17060;BME280;8646;49.716;9.266;2023-08-24T08:24:23;100338.28;;;24.80;67.28
17060;BME280;8646;49.716;9.266;2023-08-24T08:27:26;100337.69;;;25.04;67.19
17060;BME280;8646;49.716;9.266;2023-08-24T08:30:29;100328.44;;;25.13;65.80
17060;BME280;8646;49.716;9.266;2023-08-24T08:33:32;100322.91;;;25.13;65.97
17060;BME280;8646;49.716;9.266;2023-08-24T08:36:36;100323.63;;;25.41;65.91
17060;BME280;8646;49.716;9.266;2023-08-24T08:39:39;100293.69;;;25.62;64.21
17060;BME280;8646;49.716;9.266;2023-08-24T08:42:42;100282.09;;;25.84;62.82
17060;BME280;8646;49.716;9.266;2023-08-24T08:45:46;100272.38;;;25.89;62.60
17060;BME280;8646;49.716;9.266;2023-08-24T08:48:51;100265.00;;;25.97;63.11
17060;BME280;8646;49.716;9.266;2023-08-24T08:51:56;100253.78;;;26.07;62.17
17060;BME280;8646;49.716;9.266;2023-08-24T08:54:59;100254.97;;;26.04;59.82
17060;BME280;8646;49.716;9.266;2023-08-24T08:58:03;100250.13;;;26.06;61.47
17060;BME280;8646;49.716;9.266;2023-08-24T09:01:06;100235.94;;;26.09;58.93
17060;BME280;8646;49.716;9.266;2023-08-24T09:04:13;100231.38;;;26.26;59.41
17060;BME280;8646;49.716;9.266;2023-08-24T09:07:17;100223.25;;;26.41;60.05
17060;BME280;8646;49.716;9.266;2023-08-24T09:10:22;100222.88;;;26.44;57.39
17060;BME280;8646;49.716;9.266;2023-08-24T09:13:25;100202.06;;;26.32;58.11
17060;BME280;8646;49.716;9.266;2023-08-24T09:16:29;100188.16;;;26.23;58.07
17060;BME280;8646;49.716;9.266;2023-08-24T09:19:32;100200.88;;;26.34;57.29
17060;BME280;8646;49.716;9.266;2023-08-24T09:22:38;100194.78;;;26.31;57.14
17060;BME280;8646;49.716;9.266;2023-08-24T09:25:45;100164.97;;;26.33;56.59
17060;BME280;8646;49.716;9.266;2023-08-24T09:28:51;100167.06;;;26.39;57.23
17060;BME280;8646;49.716;9.266;2023-08-24T09:31:53;100169.31;;;26.43;56.78
17060;BME280;8646;49.716;9.266;2023-08-24T09:35:02;100169.16;;;26.61;55.95
17060;BME280;8646;49.716;9.266;2023-08-24T09:38:19;100170.56;;;26.65;55.35
17060;BME280;8646;49.716;9.266;2023-08-24T09:41:21;100156.34;;;26.84;54.62
17060;BME280;8646;49.716;9.266;2023-08-24T09:44:24;100159.81;;;27.11;55.20
17060;BME280;8646;49.716;9.266;2023-08-24T09:47:29;100161.72;;;27.18;52.81
17060;BME280;8646;49.716;9.266;2023-08-24T09:50:32;100163.78;;;27.32;51.97
17060;BME280;8646;49.716;9.266;2023-08-24T09:53:39;100130.28;;;27.18;51.53
17060;BME280;8646;49.716;9.266;2023-08-24T09:56:44;100139.28;;;27.36;51.33
17060;BME280;8646;49.716;9.266;2023-08-24T09:59:49;100122.78;;;27.34;50.31
17060;BME280;8646;49.716;9.266;2023-08-24T10:02:58;100108.44;;;27.23;51.00
17060;BME280;8646;49.716;9.266;2023-08-24T10:06:09;100104.44;;;27.17;51.68
17060;BME280;8646;49.716;9.266;2023-08-24T10:09:21;100098.88;;;27.17;52.36
17060;BME280;8646;49.716;9.266;2023-08-24T10:12:26;100094.00;;;27.27;51.91
17060;BME280;8646;49.716;9.266;2023-08-24T10:15:30;100084.75;;;27.35;50.74
17060;BME280;8646;49.716;9.266;2023-08-24T10:18:40;100086.84;;;27.33;51.15
17060;BME280;8646;49.716;9.266;2023-08-24T10:21:43;100073.59;;;27.51;50.76
17060;BME280;8646;49.716;9.266;2023-08-24T10:24:49;100075.31;;;27.60;51.12
17060;BME280;8646;49.716;9.266;2023-08-24T10:27:54;100065.84;;;27.78;50.71
17060;BME280;8646;49.716;9.266;2023-08-24T10:30:58;100081.56;;;27.93;51.80
17060;BME280;8646;49.716;9.266;2023-08-24T10:34:04;100078.84;;;28.16;51.39
17060;BME280;8646;49.716;9.266;2023-08-24T10:37:08;100055.94;;;28.37;50.87
17060;BME280;8646;49.716;9.266;2023-08-24T10:40:14;100059.44;;;28.54;49.83
17060;BME280;8646;49.716;9.266;2023-08-24T10:43:16;100037.75;;;28.64;49.11
17060;BME280;8646;49.716;9.266;2023-08-24T10:46:19;100052.75;;;28.86;48.70
17060;BME280;8646;49.716;9.266;2023-08-24T10:49:29;100029.88;;;28.90;48.51
17060;BME280;8646;49.716;9.266;2023-08-24T10:52:33;100054.56;;;29.22;47.82
17060;BME280;8646;49.716;9.266;2023-08-24T10:55:39;100042.88;;;29.42;46.18
17060;BME280;8646;49.716;9.266;2023-08-24T10:58:44;100038.84;;;29.59;45.63
17060;BME280;8646;49.716;9.266;2023-08-24T11:01:55;100024.28;;;29.64;44.66
17060;BME280;8646;49.716;9.266;2023-08-24T11:05:05;100021.78;;;29.69;44.40
17060;BME280;8646;49.716;9.266;2023-08-24T11:08:08;100018.28;;;29.81;42.81
17060;BME280;8646;49.716;9.266;2023-08-24T11:11:21;100015.19;;;29.91;42.31
17060;BME280;8646;49.716;9.266;2023-08-24T11:14:24;100009.03;;;30.17;42.01
17060;BME280;8646;49.716;9.266;2023-08-24T11:17:30;100010.22;;;30.50;42.59
17060;BME280;8646;49.716;9.266;2023-08-24T11:20:37;99988.03;;;30.63;40.90
17060;BME280;8646;49.716;9.266;2023-08-24T11:23:40;99979.22;;;30.66;40.91
17060;BME280;8646;49.716;9.266;2023-08-24T11:26:48;99972.75;;;30.87;40.31
17060;BME280;8646;49.716;9.266;2023-08-24T11:29:58;99972.06;;;30.85;40.76
17060;BME280;8646;49.716;9.266;2023-08-24T11:33:02;99971.22;;;30.85;40.15
17060;BME280;8646;49.716;9.266;2023-08-24T11:36:05;99965.25;;;30.94;39.89
17060;BME280;8646;49.716;9.266;2023-08-24T11:39:17;99962.34;;;31.09;39.97
17060;BME280;8646;49.716;9.266;2023-08-24T11:42:23;99957.50;;;31.24;39.72
17060;BME280;8646;49.716;9.266;2023-08-24T11:45:33;99963.97;;;31.31;39.92
17060;BME280;8646;49.716;9.266;2023-08-24T11:48:37;99956.91;;;31.35;39.47
17060;BME280;8646;49.716;9.266;2023-08-24T11:51:41;99945.53;;;31.43;39.24
17060;BME280;8646;49.716;9.266;2023-08-24T11:54:44;99943.44;;;31.52;39.32
17060;BME280;8646;49.716;9.266;2023-08-24T11:57:49;99936.97;;;31.52;38.32
17060;BME280;8646;49.716;9.266;2023-08-24T12:00:52;99919.75;;;31.55;39.35
17060;BME280;8646;49.716;9.266;2023-08-24T12:03:56;99924.06;;;31.51;38.67
17060;BME280;8646;49.716;9.266;2023-08-24T12:06:59;99909.88;;;31.52;38.85
17060;BME280;8646;49.716;9.266;2023-08-24T12:10:03;99908.56;;;31.48;38.13
17060;BME280;8646;49.716;9.266;2023-08-24T12:13:08;99902.09;;;31.47;38.70
17060;BME280;8646;49.716;9.266;2023-08-24T12:16:15;99902.72;;;31.36;38.31
17060;BME280;8646;49.716;9.266;2023-08-24T12:19:21;99899.28;;;31.34;38.02
17060;BME280;8646;49.716;9.266;2023-08-24T12:22:24;99890.91;;;31.47;38.60
17060;BME280;8646;49.716;9.266;2023-08-24T12:25:27;99881.97;;;31.65;37.32
17060;BME280;8646;49.716;9.266;2023-08-24T12:28:31;99877.47;;;31.84;38.29
17060;BME280;8646;49.716;9.266;2023-08-24T12:31:35;99860.91;;;31.96;38.36
17060;BME280;8646;49.716;9.266;2023-08-24T12:34:38;99860.69;;;31.97;37.66
17060;BME280;8646;49.716;9.266;2023-08-24T12:37:41;99858.34;;;32.07;37.81
17060;BME280;8646;49.716;9.266;2023-08-24T12:40:44;99844.53;;;32.12;37.19
17060;BME280;8646;49.716;9.266;2023-08-24T12:43:50;99849.50;;;32.10;37.25
17060;BME280;8646;49.716;9.266;2023-08-24T12:46:54;99845.00;;;32.22;37.43
17060;BME280;8646;49.716;9.266;2023-08-24T12:49:56;99834.03;;;32.34;37.27
17060;BME280;8646;49.716;9.266;2023-08-24T12:52:59;99837.22;;;32.51;37.13
17060;BME280;8646;49.716;9.266;2023-08-24T12:56:03;99827.91;;;32.70;37.19
17060;BME280;8646;49.716;9.266;2023-08-24T12:59:07;99796.41;;;32.68;36.74
17060;BME280;8646;49.716;9.266;2023-08-24T13:02:10;99818.53;;;32.96;36.85
17060;BME280;8646;49.716;9.266;2023-08-24T13:05:29;99823.22;;;33.09;36.60
17060;BME280;8646;49.716;9.266;2023-08-24T13:08:33;99816.09;;;33.13;36.56
17060;BME280;8646;49.716;9.266;2023-08-24T13:11:38;99806.41;;;33.09;36.26
17060;BME280;8646;49.716;9.266;2023-08-24T13:14:42;99818.13;;;32.92;36.55
17060;BME280;8646;49.716;9.266;2023-08-24T13:17:45;99809.53;;;32.87;36.62
17060;BME280;8646;49.716;9.266;2023-08-24T13:20:48;99794.84;;;32.92;36.11
17060;BME280;8646;49.716;9.266;2023-08-24T13:23:51;99797.44;;;32.93;36.64
17060;BME280;8646;49.716;9.266;2023-08-24T13:26:54;99798.69;;;33.04;36.53
17060;BME280;8646;49.716;9.266;2023-08-24T13:30:01;99792.22;;;33.04;36.59
17060;BME280;8646;49.716;9.266;2023-08-24T13:33:04;99798.41;;;33.12;36.14
17060;BME280;8646;49.716;9.266;2023-08-24T13:36:08;99795.41;;;33.14;36.68
17060;BME280;8646;49.716;9.266;2023-08-24T13:39:11;99786.78;;;33.09;36.85
17060;BME280;8646;49.716;9.266;2023-08-24T13:42:14;99790.91;;;33.06;36.38
17060;BME280;8646;49.716;9.266;2023-08-24T13:45:18;99782.28;;;33.08;36.48
17060;BME280;8646;49.716;9.266;2023-08-24T13:48:21;99771.25;;;33.13;36.33
17060;BME280;8646;49.716;9.266;2023-08-24T13:51:25;99769.97;;;33.09;35.80
17060;BME280;8646;49.716;9.266;2023-08-24T13:54:28;99770.22;;;33.07;36.86
17060;BME280;8646;49.716;9.266;2023-08-24T13:57:32;99776.69;;;33.08;36.60
17060;BME280;8646;49.716;9.266;2023-08-24T14:00:36;99776.69;;;33.01;36.93
17060;BME280;8646;49.716;9.266;2023-08-24T14:03:39;99778.28;;;32.90;37.10
17060;BME280;8646;49.716;9.266;2023-08-24T14:06:44;99793.16;;;32.91;37.08
17060;BME280;8646;49.716;9.266;2023-08-24T14:09:49;99797.63;;;32.99;36.88
17060;BME280;8646;49.716;9.266;2023-08-24T14:13:07;99792.59;;;33.14;36.83
17060;BME280;8646;49.716;9.266;2023-08-24T14:16:13;99795.75;;;33.30;36.57
17060;BME280;8646;49.716;9.266;2023-08-24T14:19:18;99795.59;;;33.50;36.44
17060;BME280;8646;49.716;9.266;2023-08-24T14:22:21;99793.81;;;33.62;35.37
17060;BME280;8646;49.716;9.266;2023-08-24T14:25:23;99800.66;;;33.66;36.23
17060;BME280;8646;49.716;9.266;2023-08-24T14:28:47;99816.31;;;33.56;36.27
17060;BME280;8646;49.716;9.266;2023-08-24T14:31:51;99810.13;;;33.41;36.31
17060;BME280;8646;49.716;9.266;2023-08-24T14:34:54;99813.25;;;33.26;36.77
17060;BME280;8646;49.716;9.266;2023-08-24T14:37:57;99820.63;;;33.14;37.00
17060;BME280;8646;49.716;9.266;2023-08-24T14:40:59;99812.47;;;33.06;37.14
17060;BME280;8646;49.716;9.266;2023-08-24T14:44:03;99813.97;;;33.02;37.43
17060;BME280;8646;49.716;9.266;2023-08-24T14:47:07;99813.63;;;32.91;37.37
17060;BME280;8646;49.716;9.266;2023-08-24T14:50:10;99817.31;;;32.79;37.89
17060;BME280;8646;49.716;9.266;2023-08-24T14:53:13;99823.16;;;32.71;39.03
17060;BME280;8646;49.716;9.266;2023-08-24T14:56:16;99835.88;;;32.67;38.88
17060;BME280;8646;49.716;9.266;2023-08-24T14:59:21;99865.00;;;32.59;39.04
17060;BME280;8646;49.716;9.266;2023-08-24T15:02:26;99882.88;;;32.45;39.41
17060;BME280;8646;49.716;9.266;2023-08-24T15:05:30;99913.25;;;32.21;40.00
17060;BME280;8646;49.716;9.266;2023-08-24T15:08:33;99932.78;;;31.82;40.23
17060;BME280;8646;49.716;9.266;2023-08-24T15:11:36;99960.69;;;31.62;40.92
17060;BME280;8646;49.716;9.266;2023-08-24T15:14:56;99979.28;;;31.35;41.28
17060;BME280;8646;49.716;9.266;2023-08-24T15:18:01;99981.09;;;31.15;42.08
17060;BME280;8646;49.716;9.266;2023-08-24T15:21:05;99981.66;;;31.04;42.22
17060;BME280;8646;49.716;9.266;2023-08-24T15:24:07;99976.44;;;30.94;42.64
17060;BME280;8646;49.716;9.266;2023-08-24T15:27:10;99990.75;;;30.85;42.77
17060;BME280;8646;49.716;9.266;2023-08-24T15:30:13;100005.28;;;30.73;43.88
17060;BME280;8646;49.716;9.266;2023-08-24T15:33:18;100017.25;;;30.67;43.22
17060;BME280;8646;49.716;9.266;2023-08-24T15:36:24;100015.03;;;30.56;43.56
17060;BME280;8646;49.716;9.266;2023-08-24T15:39:27;99980.72;;;30.41;43.85
17060;BME280;8646;49.716;9.266;2023-08-24T15:42:30;99854.03;;;30.08;44.88
17060;BME280;8646;49.716;9.266;2023-08-24T15:45:33;99785.91;;;29.95;47.40
17060;BME280;8646;49.716;9.266;2023-08-24T15:48:38;99810.75;;;29.69;47.42
17060;BME280;8646;49.716;9.266;2023-08-24T15:51:41;99809.28;;;29.52;48.24
17060;BME280;8646;49.716;9.266;2023-08-24T15:54:44;99781.09;;;29.40;51.34
17060;BME280;8646;49.716;9.266;2023-08-24T15:57:49;99757.25;;;29.16;55.24
17060;BME280;8646;49.716;9.266;2023-08-24T16:00:52;99735.22;;;29.00;55.77
17060;BME280;8646;49.716;9.266;2023-08-24T16:03:59;99710.97;;;28.94;56.00
17060;BME280;8646;49.716;9.266;2023-08-24T16:07:02;99685.63;;;28.89;57.34
17060;BME280;8646;49.716;9.266;2023-08-24T16:10:06;99668.66;;;28.84;57.20
17060;BME280;8646;49.716;9.266;2023-08-24T16:13:10;99674.47;;;28.89;56.61
17060;BME280;8646;49.716;9.266;2023-08-24T16:16:13;99677.50;;;28.73;59.83
17060;BME280;8646;49.716;9.266;2023-08-24T16:19:17;99668.84;;;28.82;60.24